Time;durP1;ratioP1;P1;durP2;ratioP2;P2;SDS_P1;SDS_P2;PMS_P1;PMS_P2;Temp;Humidity;BMP_temperature;BMP_pressure;BME280_temperature;BME280_humidity;BME280_pressure;Samples;Min_cycle;Max_cycle;Signal;HPM_P1;HPM_P2
2024/01/05 00:01:38;;;;;;;0.60;0.60;;;2.00;99.90;;;;;;5025508;28;20056;-81
2024/01/05 00:04:04;;;;;;;1.38;1.27;;;2.00;99.90;;;;;;5041604;28;20041;-78
2024/01/05 00:06:30;;;;;;;0.43;0.43;;;2.10;99.90;;;;;;5054019;28;20512;-76
2024/01/05 00:08:56;;;;;;;0.70;0.70;;;2.00;99.90;;;;;;5037474;28;20044;-78
2024/01/05 00:11:21;;;;;;;;;;;2.00;99.90;;;;;;5036214;28;20079;-77
2024/01/05 00:13:48;;;;;;;0.80;0.80;;;2.00;99.90;;;;;;5051276;28;19924;-79
2024/01/05 00:16:21;;;;;;;0.60;0.60;;;2.00;99.90;;;;;;5034190;28;20444;-77
2024/01/05 00:18:47;;;;;;;0.60;0.60;;;2.00;99.90;;;;;;5050232;28;20127;-76
2024/01/05 00:21:23;;;;;;;;;;;2.00;99.90;;;;;;5051556;28;20563;-77
2024/01/05 00:23:50;;;;;;;0.55;0.55;;;2.00;99.90;;;;;;5060412;28;19942;-76
2024/01/05 00:26:16;;;;;;;0.60;0.60;;;1.90;99.90;;;;;;5053919;28;20040;-76
2024/01/05 00:28:42;;;;;;;0.60;0.60;;;1.90;99.90;;;;;;5013016;28;20125;-76
2024/01/05 00:31:11;;;;;;;1.00;1.00;;;1.90;99.90;;;;;;5041565;28;20083;-80
2024/01/05 00:33:42;;;;;;;0.57;0.57;;;1.90;99.90;;;;;;5057188;28;20056;-78
2024/01/05 00:36:11;;;;;;;0.68;0.68;;;1.90;99.90;;;;;;5063226;28;20416;-77
2024/01/05 00:38:38;;;;;;;0.70;0.70;;;1.90;99.90;;;;;;5059885;28;20037;-77
2024/01/05 00:41:04;;;;;;;0.82;0.82;;;1.80;99.90;;;;;;5055181;28;20055;-78
2024/01/05 00:43:30;;;;;;;0.60;0.60;;;1.80;99.90;;;;;;5043133;28;20043;-80
2024/01/05 00:45:56;;;;;;;0.60;0.60;;;1.80;99.90;;;;;;5057167;28;20051;-77
2024/01/05 00:48:22;;;;;;;0.60;0.60;;;1.80;99.90;;;;;;5056619;28;20119;-78
2024/01/05 00:50:48;;;;;;;;;;;1.80;99.90;;;;;;5030757;28;20096;-75
2024/01/05 00:53:14;;;;;;;0.65;0.65;;;1.80;99.90;;;;;;5035744;28;19955;-83
2024/01/05 00:55:40;;;;;;;1.10;1.10;;;1.80;99.90;;;;;;5054298;28;20040;-77
2024/01/05 00:58:05;;;;;;;0.68;0.68;;;1.80;99.90;;;;;;5050098;28;20072;-78
2024/01/05 01:00:31;;;;;;;0.60;0.60;;;1.80;99.90;;;;;;5016279;28;20037;-78
2024/01/05 01:02:57;;;;;;;0.85;0.85;;;1.80;99.90;;;;;;5050512;28;20047;-80
2024/01/05 01:05:23;;;;;;;6.00;1.42;;;1.80;99.90;;;;;;5053128;28;20094;-78
2024/01/05 01:07:49;;;;;;;0.80;0.80;;;2.20;99.90;;;;;;5039537;28;20050;-78
2024/01/05 01:10:15;;;;;;;0.70;0.70;;;1.80;99.90;;;;;;5036625;28;20036;-81
2024/01/05 01:12:40;;;;;;;;;;;1.80;99.90;;;;;;5027031;28;20068;-78
2024/01/05 01:15:06;;;;;;;0.63;0.63;;;1.90;99.90;;;;;;5071393;28;19920;-77
2024/01/05 01:17:32;;;;;;;0.70;0.70;;;1.80;99.90;;;;;;5051722;28;20041;-80
2024/01/05 01:19:58;;;;;;;;;;;1.70;99.90;;;;;;5022495;28;20040;-80
2024/01/05 01:22:24;;;;;;;0.70;0.70;;;1.70;99.90;;;;;;5054879;28;19921;-76
2024/01/05 01:24:50;;;;;;;;;;;1.70;99.90;;;;;;5068588;28;20040;-77
2024/01/05 01:27:16;;;;;;;0.60;0.60;;;1.70;99.90;;;;;;5053099;28;20293;-80
2024/01/05 01:29:42;;;;;;;0.70;0.70;;;1.70;99.90;;;;;;5047230;28;20040;-79
2024/01/05 01:32:09;;;;;;;0.70;0.70;;;1.70;99.90;;;;;;5051514;28;20167;-76
2024/01/05 01:34:35;;;;;;;0.70;0.70;;;1.70;99.90;;;;;;5029787;28;20102;-80
2024/01/05 01:37:02;;;;;;;0.60;0.60;;;1.70;99.90;;;;;;5034877;28;20044;-79
2024/01/05 01:39:28;;;;;;;0.80;0.80;;;1.70;99.90;;;;;;5046959;28;20041;-77
2024/01/05 01:41:54;;;;;;;1.20;1.20;;;1.70;99.90;;;;;;5035574;28;20039;-79
2024/01/05 01:44:19;;;;;;;0.70;0.70;;;2.20;99.90;;;;;;5036676;28;20040;-77
2024/01/05 01:46:45;;;;;;;0.90;0.90;;;1.70;99.90;;;;;;5026629;28;20041;-80
2024/01/05 01:49:11;;;;;;;0.68;0.68;;;1.70;99.90;;;;;;5012320;28;20152;-80
2024/01/05 01:51:38;;;;;;;2.35;2.25;;;1.80;99.90;;;;;;5009995;28;20041;-76
2024/01/05 01:54:05;;;;;;;0.60;0.60;;;2.20;99.90;;;;;;5049763;28;20132;-78
2024/01/05 01:56:32;;;;;;;0.70;0.70;;;1.70;99.90;;;;;;5043533;28;20090;-75
2024/01/05 01:58:58;;;;;;;0.60;0.60;;;1.70;99.90;;;;;;5050388;28;20044;-79
2024/01/05 02:01:24;;;;;;;;;;;1.80;99.90;;;;;;5035922;28;20037;-75
2024/01/05 02:03:50;;;;;;;1.20;1.20;;;1.80;99.90;;;;;;5040655;28;20285;-78
2024/01/05 02:06:16;;;;;;;0.70;0.70;;;1.70;99.90;;;;;;5052112;28;20040;-79
2024/01/05 02:08:44;;;;;;;0.70;0.70;;;1.70;99.90;;;;;;5037882;28;20865;-79
2024/01/05 02:11:09;;;;;;;0.73;0.73;;;1.70;99.90;;;;;;5034420;28;20386;-78
2024/01/05 02:13:35;;;;;;;0.77;0.77;;;1.70;99.90;;;;;;5035236;28;20100;-78
2024/01/05 02:16:01;;;;;;;0.60;0.60;;;1.70;99.90;;;;;;5036103;28;20048;-77
2024/01/05 02:18:26;;;;;;;0.60;0.60;;;1.70;99.90;;;;;;5023068;28;20408;-81
2024/01/05 02:20:52;;;;;;;0.60;0.60;;;2.20;99.90;;;;;;5025052;28;20049;-79
2024/01/05 02:23:26;;;;;;;0.52;0.52;;;1.70;99.90;;;;;;5030426;28;20207;-77
2024/01/05 02:25:55;;;;;;;0.70;0.70;;;1.70;99.90;;;;;;5061451;28;20447;-81
2024/01/05 02:28:21;;;;;;;0.73;0.73;;;1.80;99.90;;;;;;5068536;28;20056;-76
2024/01/05 02:30:47;;;;;;;;;;;2.00;99.90;;;;;;5026485;28;20044;-79
2024/01/05 02:33:13;;;;;;;0.60;0.60;;;1.70;99.90;;;;;;5053777;28;20281;-77
2024/01/05 02:35:39;;;;;;;0.65;0.65;;;1.80;99.90;;;;;;5026458;28;20041;-76
2024/01/05 02:38:05;;;;;;;;;;;1.80;99.90;;;;;;5050502;28;20808;-78
2024/01/05 02:40:31;;;;;;;0.63;0.63;;;1.90;99.90;;;;;;5060999;28;20011;-80
2024/01/05 02:42:57;;;;;;;0.63;0.63;;;1.80;99.90;;;;;;5029200;28;20166;-77
2024/01/05 02:45:24;;;;;;;0.70;0.70;;;1.80;99.90;;;;;;5037707;28;20724;-80
2024/01/05 02:47:50;;;;;;;0.60;0.60;;;1.80;99.90;;;;;;5041677;28;20081;-80
2024/01/05 02:50:17;;;;;;;0.70;0.70;;;1.70;99.90;;;;;;5013971;28;20495;-79
2024/01/05 02:52:42;;;;;;;1.08;1.02;;;1.80;99.90;;;;;;5047910;28;20032;-77
2024/01/05 02:55:10;;;;;;;1.38;1.35;;;1.80;99.90;;;;;;5035529;28;20154;-77
2024/01/05 02:57:37;;;;;;;0.60;0.60;;;1.70;99.90;;;;;;5032294;28;20055;-75
2024/01/05 03:00:04;;;;;;;0.60;0.60;;;1.60;99.90;;;;;;5027746;28;20094;-77
2024/01/05 03:02:30;;;;;;;0.70;0.70;;;1.70;99.90;;;;;;5031563;28;20036;-77
2024/01/05 03:04:56;;;;;;;0.73;0.73;;;1.70;99.90;;;;;;5044025;28;20037;-78
2024/01/05 03:07:22;;;;;;;0.57;0.57;;;1.70;99.90;;;;;;5052434;28;20056;-78
2024/01/05 03:09:47;;;;;;;0.80;0.80;;;1.70;99.90;;;;;;5019777;28;20482;-80
2024/01/05 03:12:13;;;;;;;0.70;0.70;;;1.70;99.90;;;;;;5039089;28;20091;-76
2024/01/05 03:14:39;;;;;;;0.70;0.70;;;1.60;99.90;;;;;;5035107;28;20043;-80
2024/01/05 03:17:05;;;;;;;0.80;0.70;;;1.60;99.90;;;;;;5053056;28;20819;-77
2024/01/05 03:19:31;;;;;;;0.70;0.70;;;1.60;99.90;;;;;;5038344;28;20097;-76
2024/01/05 03:21:57;;;;;;;0.60;0.60;;;1.60;99.90;;;;;;5065909;28;20040;-77
2024/01/05 03:24:23;;;;;;;0.70;0.70;;;1.60;99.90;;;;;;5060081;28;20047;-82
2024/01/05 03:26:49;;;;;;;0.63;0.63;;;1.70;99.90;;;;;;5044668;28;20044;-78
2024/01/05 03:29:14;;;;;;;0.80;0.80;;;1.60;99.90;;;;;;5048569;28;20419;-77
2024/01/05 03:31:43;;;;;;;1.73;0.90;;;1.60;99.90;;;;;;5062819;28;20060;-78
2024/01/05 03:34:09;;;;;;;0.57;0.57;;;1.60;99.90;;;;;;5054818;28;20361;-78
2024/01/05 03:36:35;;;;;;;1.05;1.05;;;1.60;99.90;;;;;;5046828;28;20044;-77
2024/01/05 03:39:00;;;;;;;0.70;0.70;;;1.60;99.90;;;;;;5036499;28;20516;-75
2024/01/05 03:41:26;;;;;;;0.60;0.60;;;1.60;99.90;;;;;;5043477;28;20036;-79
2024/01/05 03:43:52;;;;;;;0.60;0.60;;;1.60;99.90;;;;;;5054114;28;20029;-76
2024/01/05 03:46:18;;;;;;;0.80;0.80;;;1.60;99.90;;;;;;5057428;28;20040;-78
2024/01/05 03:48:44;;;;;;;0.50;0.50;;;1.60;99.90;;;;;;5028628;28;20076;-80
2024/01/05 03:51:09;;;;;;;0.80;0.80;;;1.60;99.90;;;;;;5036334;28;20044;-79
2024/01/05 03:53:35;;;;;;;0.70;0.70;;;1.60;99.90;;;;;;5049311;28;20051;-75
2024/01/05 03:56:01;;;;;;;2.22;2.13;;;1.60;99.90;;;;;;5046335;28;20435;-81
2024/01/05 03:58:28;;;;;;;0.60;0.60;;;1.60;99.90;;;;;;5045012;28;20055;-77
2024/01/05 04:00:54;;;;;;;0.70;0.70;;;1.40;99.90;;;;;;5055120;28;20052;-80
2024/01/05 04:03:19;;;;;;;;;;;1.60;99.90;;;;;;5020313;28;20115;-75
2024/01/05 04:05:45;;;;;;;0.70;0.70;;;1.60;99.90;;;;;;5054193;28;20003;-74
2024/01/05 04:08:12;;;;;;;0.70;0.70;;;1.60;99.90;;;;;;5052332;28;20040;-77
2024/01/05 04:10:38;;;;;;;1.17;1.10;;;1.60;99.90;;;;;;5053804;28;20056;-78
2024/01/05 04:13:05;;;;;;;0.80;0.80;;;1.60;99.90;;;;;;5056978;28;20066;-77
2024/01/05 04:15:38;;;;;;;0.60;0.60;;;1.60;99.90;;;;;;5056015;28;20037;-77
2024/01/05 04:18:04;;;;;;;0.80;0.80;;;1.60;99.90;;;;;;5052214;28;20063;-77
2024/01/05 04:20:30;;;;;;;;;;;1.60;99.90;;;;;;5026933;28;20037;-77
2024/01/05 04:22:56;;;;;;;0.57;0.57;;;1.60;99.90;;;;;;5044712;28;19928;-80
2024/01/05 04:25:22;;;;;;;0.60;0.60;;;1.70;99.90;;;;;;5049348;28;20117;-78
2024/01/05 04:27:47;;;;;;;0.63;0.63;;;1.60;99.90;;;;;;5048996;28;20088;-78
2024/01/05 04:30:13;;;;;;;0.60;0.60;;;1.70;99.90;;;;;;5036514;28;20052;-79
2024/01/05 04:32:39;;;;;;;0.80;0.80;;;1.60;99.90;;;;;;5045706;28;20048;-79
2024/01/05 04:35:05;;;;;;;0.80;0.80;;;2.10;99.90;;;;;;5017461;28;20048;-77
2024/01/05 04:37:31;;;;;;;0.70;0.70;;;1.60;99.90;;;;;;5055948;28;20036;-80
2024/01/05 04:39:56;;;;;;;0.70;0.70;;;1.60;99.90;;;;;;5047811;28;20106;-83
2024/01/05 04:42:22;;;;;;;1.08;1.08;;;1.60;99.90;;;;;;5035702;28;20139;-78
2024/01/05 04:44:49;;;;;;;0.70;0.70;;;1.60;99.90;;;;;;5012046;28;20079;-82
2024/01/05 04:47:15;;;;;;;1.35;1.25;;;1.60;99.90;;;;;;5054935;28;20639;-79
2024/01/05 04:49:41;;;;;;;;;;;1.80;99.90;;;;;;5016705;28;20048;-79
2024/01/05 04:52:07;;;;;;;0.68;0.68;;;1.60;99.90;;;;;;5056429;28;20002;-79
2024/01/05 04:54:33;;;;;;;0.90;0.90;;;1.60;99.90;;;;;;5034516;28;20104;-81
2024/01/05 04:56:58;;;;;;;0.50;0.50;;;1.60;99.90;;;;;;5035278;28;20044;-81
2024/01/05 04:59:24;;;;;;;0.75;0.75;;;1.60;99.90;;;;;;5027929;28;20068;-79
2024/01/05 05:01:50;;;;;;;0.57;0.57;;;1.60;99.90;;;;;;5045005;28;20119;-76
2024/01/05 05:04:17;;;;;;;0.60;0.60;;;1.70;99.90;;;;;;5053252;28;20068;-80
2024/01/05 05:06:44;;;;;;;0.70;0.70;;;1.60;99.90;;;;;;5031399;28;20401;-83
2024/01/05 05:09:10;;;;;;;0.70;0.70;;;1.60;99.90;;;;;;5050848;28;20044;-80
2024/01/05 05:11:38;;;;;;;0.70;0.70;;;2.50;99.90;;;;;;5034489;28;20657;-83
2024/01/05 05:14:04;;;;;;;0.60;0.60;;;1.60;99.90;;;;;;5053740;28;20044;-80
2024/01/05 05:16:29;;;;;;;0.75;0.75;;;1.80;99.90;;;;;;5027804;28;20055;-82
2024/01/05 05:18:55;;;;;;;0.80;0.80;;;2.90;99.90;;;;;;5063467;28;20079;-77
2024/01/05 05:21:21;;;;;;;0.70;0.70;;;1.70;99.90;;;;;;5033507;28;20053;-79
2024/01/05 05:23:46;;;;;;;0.70;0.70;;;1.70;99.90;;;;;;5057316;28;20043;-79
2024/01/05 05:26:12;;;;;;;0.70;0.70;;;2.70;99.90;;;;;;5037357;28;20779;-76
2024/01/05 05:28:38;;;;;;;0.70;0.70;;;1.80;99.90;;;;;;5047597;28;20044;-79
2024/01/05 05:31:04;;;;;;;0.70;0.70;;;1.70;99.90;;;;;;5039379;28;20035;-80
2024/01/05 05:33:29;;;;;;;0.60;0.60;;;1.70;99.90;;;;;;5045979;28;20040;-78
2024/01/05 05:35:55;;;;;;;0.70;0.70;;;1.70;99.90;;;;;;5038889;28;20107;-76
2024/01/05 05:38:21;;;;;;;0.70;0.70;;;2.00;99.90;;;;;;5036797;28;20052;-79
2024/01/05 05:40:46;;;;;;;0.60;0.60;;;1.80;99.90;;;;;;5056202;28;20062;-79
2024/01/05 05:43:12;;;;;;;0.60;0.60;;;1.70;99.90;;;;;;5026415;28;20136;-79
2024/01/05 05:45:38;;;;;;;0.70;0.70;;;1.80;99.90;;;;;;5036955;28;20051;-80
2024/01/05 05:48:04;;;;;;;0.60;0.60;;;1.80;99.90;;;;;;5048054;28;20082;-76
2024/01/05 05:50:30;;;;;;;;;;;1.80;99.90;;;;;;5049630;28;20039;-78
2024/01/05 05:52:55;;;;;;;0.60;0.60;;;1.80;99.90;;;;;;5055089;28;20032;-79
2024/01/05 05:55:21;;;;;;;0.60;0.60;;;1.80;99.90;;;;;;5017921;28;20073;-80
2024/01/05 05:57:47;;;;;;;0.50;0.50;;;1.80;99.90;;;;;;5037979;28;20040;-80
2024/01/05 06:00:13;;;;;;;0.70;0.70;;;1.80;99.90;;;;;;5034095;28;20040;-81
2024/01/05 06:02:39;;;;;;;1.65;0.80;;;1.80;99.90;;;;;;5049575;28;20730;-82
2024/01/05 06:05:06;;;;;;;0.80;0.80;;;1.80;99.90;;;;;;5049497;28;20049;-76
2024/01/05 06:07:31;;;;;;;0.60;0.60;;;1.80;99.90;;;;;;5045292;28;20032;-78
2024/01/05 06:09:58;;;;;;;1.30;1.30;;;1.80;99.90;;;;;;5043010;28;20129;-79
2024/01/05 06:12:24;;;;;;;0.70;0.70;;;1.90;99.90;;;;;;5044805;28;20056;-77
2024/01/05 06:14:50;;;;;;;0.70;0.70;;;1.90;99.90;;;;;;5047179;28;20048;-79
2024/01/05 06:17:18;;;;;;;0.70;0.70;;;1.90;99.90;;;;;;5046859;28;20101;-77
2024/01/05 06:19:44;;;;;;;0.68;0.68;;;1.90;99.90;;;;;;5046836;28;20618;-82
2024/01/05 06:22:10;;;;;;;0.70;0.70;;;2.00;99.90;;;;;;5048143;28;20048;-76
2024/01/05 06:24:35;;;;;;;0.50;0.50;;;1.90;99.90;;;;;;5053523;28;20045;-76
2024/01/05 06:27:01;;;;;;;0.60;0.60;;;1.90;99.90;;;;;;5029287;28;20033;-82
2024/01/05 06:29:27;;;;;;;;;;;1.90;99.90;;;;;;5002654;28;20061;-79
2024/01/05 06:31:53;;;;;;;0.60;0.60;;;1.90;99.90;;;;;;5044650;28;19921;-77
2024/01/05 06:34:19;;;;;;;0.70;0.70;;;2.00;99.90;;;;;;5045923;28;20048;-78
2024/01/05 06:36:44;;;;;;;0.55;0.55;;;1.90;99.90;;;;;;5034644;28;20056;-77
2024/01/05 06:39:10;;;;;;;0.60;0.60;;;2.10;99.90;;;;;;5056686;28;20047;-79
2024/01/05 06:41:36;;;;;;;0.65;0.65;;;2.00;99.90;;;;;;5030020;28;20089;-79
2024/01/05 06:44:02;;;;;;;0.60;0.60;;;2.00;99.90;;;;;;5046041;28;20494;-79
2024/01/05 06:46:28;;;;;;;0.68;0.68;;;2.00;99.90;;;;;;5047689;28;20033;-78
2024/01/05 06:48:56;;;;;;;0.65;0.65;;;2.60;99.90;;;;;;5047804;28;20480;-78
2024/01/05 06:51:29;;;;;;;0.60;0.60;;;2.50;99.90;;;;;;5051692;28;20041;-81
2024/01/05 06:53:57;;;;;;;0.70;0.70;;;2.10;99.90;;;;;;5048310;28;20055;-79
2024/01/05 06:56:23;;;;;;;0.70;0.70;;;2.10;99.90;;;;;;5035770;28;20044;-80
2024/01/05 06:58:53;;;;;;;1.00;1.00;;;2.10;99.90;;;;;;5037730;28;20036;-80
2024/01/05 07:01:18;;;;;;;0.60;0.60;;;2.10;99.90;;;;;;5055316;28;20034;-80
2024/01/05 07:03:44;;;;;;;1.17;1.08;;;2.10;99.90;;;;;;5049894;28;20055;-82
2024/01/05 07:06:11;;;;;;;0.70;0.70;;;2.10;99.90;;;;;;5035852;28;20756;-78
2024/01/05 07:08:37;;;;;;;0.82;0.82;;;2.10;99.90;;;;;;5033866;28;20090;-80
2024/01/05 07:11:03;;;;;;;0.73;0.73;;;2.10;99.90;;;;;;5044784;28;20049;-81
2024/01/05 07:13:28;;;;;;;0.70;0.70;;;2.20;99.90;;;;;;5032400;28;20049;-80
2024/01/05 07:15:55;;;;;;;0.60;0.60;;;2.70;99.90;;;;;;5033388;28;20453;-78
2024/01/05 07:18:20;;;;;;;0.65;0.65;;;2.20;99.90;;;;;;5026074;28;20052;-79
2024/01/05 07:20:46;;;;;;;0.77;0.77;;;2.20;99.90;;;;;;5032296;28;20124;-84
2024/01/05 07:23:12;;;;;;;0.55;0.55;;;2.20;99.90;;;;;;4987442;28;20541;-82
2024/01/05 07:25:37;;;;;;;1.05;1.00;;;2.20;99.90;;;;;;5012706;28;20045;-82
2024/01/05 07:28:04;;;;;;;0.82;0.82;;;2.20;99.90;;;;;;5035216;28;20076;-82
2024/01/05 07:30:30;;;;;;;0.60;0.60;;;2.20;99.90;;;;;;5034955;28;20038;-83
2024/01/05 07:32:56;;;;;;;0.60;0.60;;;2.30;99.90;;;;;;5031530;28;20041;-82
2024/01/05 07:35:21;;;;;;;0.60;0.60;;;2.20;99.90;;;;;;5014530;28;20053;-77
2024/01/05 07:37:47;;;;;;;0.75;0.73;;;2.20;99.90;;;;;;5008337;28;20517;-80
2024/01/05 07:40:13;;;;;;;0.60;0.60;;;2.40;99.90;;;;;;5025917;28;20121;-83
2024/01/05 07:42:39;;;;;;;0.70;0.70;;;2.60;99.90;;;;;;5017761;28;20034;-83
2024/01/05 07:45:05;;;;;;;;;;;2.30;99.90;;;;;;5034733;28;20033;-79
2024/01/05 07:47:31;;;;;;;0.60;0.60;;;2.30;99.90;;;;;;4999762;28;19925;-83
2024/01/05 07:49:57;;;;;;;;;;;2.30;99.90;;;;;;5015731;28;20103;-79
2024/01/05 07:52:23;;;;;;;0.70;0.70;;;2.30;99.90;;;;;;5033073;28;20353;-83
2024/01/05 07:54:48;;;;;;;0.70;0.70;;;2.30;99.90;;;;;;5039015;28;20037;-82
2024/01/05 07:57:14;;;;;;;0.70;0.70;;;2.30;99.90;;;;;;5018891;28;20384;-80
2024/01/05 07:59:40;;;;;;;0.75;0.75;;;2.30;99.90;;;;;;5019885;28;20045;-81
2024/01/05 08:02:05;;;;;;;0.65;0.65;;;2.40;99.90;;;;;;5030471;28;20037;-81
2024/01/05 08:04:31;;;;;;;0.60;0.60;;;2.30;99.90;;;;;;5045468;28;20041;-82
2024/01/05 08:06:57;;;;;;;0.70;0.70;;;2.40;99.90;;;;;;5041953;28;20436;-83
2024/01/05 08:09:23;;;;;;;0.65;0.65;;;2.30;99.90;;;;;;5004272;28;20077;-77
2024/01/05 08:11:48;;;;;;;0.57;0.57;;;2.60;99.90;;;;;;5037803;28;20494;-82
2024/01/05 08:14:15;;;;;;;1.30;1.30;;;2.40;99.90;;;;;;5020568;28;20053;-81
2024/01/05 08:16:40;;;;;;;;;;;2.40;99.90;;;;;;5024494;28;20419;-82
2024/01/05 08:19:06;;;;;;;0.63;0.63;;;2.40;99.90;;;;;;5027685;28;19978;-82
2024/01/05 08:21:32;;;;;;;0.60;0.60;;;2.50;99.90;;;;;;4997194;28;20120;-81
2024/01/05 08:23:57;;;;;;;0.70;0.70;;;2.40;99.90;;;;;;5016977;28;20040;-80
2024/01/05 08:26:23;;;;;;;5.50;2.25;;;2.20;99.90;;;;;;5032434;28;20037;-80
2024/01/05 08:28:49;;;;;;;0.70;0.70;;;2.50;99.90;;;;;;4998330;28;20037;-79
2024/01/05 08:31:14;;;;;;;0.60;0.60;;;2.50;99.90;;;;;;5030344;28;20053;-78
2024/01/05 08:33:40;;;;;;;0.70;0.70;;;2.50;99.90;;;;;;5032387;28;20396;-83
2024/01/05 08:36:07;;;;;;;0.60;0.60;;;2.50;99.90;;;;;;5033677;28;20387;-80
2024/01/05 08:38:33;;;;;;;0.68;0.68;;;2.50;99.90;;;;;;5032514;28;20049;-78
2024/01/05 08:40:59;;;;;;;0.60;0.60;;;2.40;99.90;;;;;;5031790;28;20536;-80
2024/01/05 08:43:25;;;;;;;0.55;0.55;;;2.50;99.90;;;;;;5031566;28;20406;-82
2024/01/05 08:45:50;;;;;;;0.60;0.60;;;2.50;99.90;;;;;;5029992;28;20044;-79
2024/01/05 08:48:16;;;;;;;0.55;0.55;;;2.50;99.90;;;;;;5040046;28;20044;-79
2024/01/05 08:50:42;;;;;;;0.60;0.60;;;2.60;99.90;;;;;;5043633;28;20048;-79
2024/01/05 08:53:11;;;;;;;0.68;0.68;;;2.60;99.90;;;;;;5010854;28;20180;-82
2024/01/05 08:55:36;;;;;;;3.08;1.65;;;2.60;99.90;;;;;;5022923;28;20053;-82
2024/01/05 08:58:04;;;;;;;1.25;1.20;;;2.60;99.90;;;;;;5014063;28;20048;-79
2024/01/05 09:00:29;;;;;;;0.55;0.55;;;2.60;99.90;;;;;;5033494;28;20390;-80
2024/01/05 09:02:55;;;;;;;0.60;0.60;;;2.60;99.90;;;;;;5031941;28;20042;-81
2024/01/05 09:05:21;;;;;;;0.85;0.68;;;2.70;99.90;;;;;;5006716;28;20042;-80
2024/01/05 09:07:50;;;;;;;0.77;0.77;;;2.70;99.90;;;;;;5011183;28;20049;-81
2024/01/05 09:10:15;;;;;;;0.50;0.50;;;2.60;99.90;;;;;;5029900;28;20059;-83
2024/01/05 09:12:41;;;;;;;0.60;0.60;;;3.00;99.90;;;;;;5024578;28;20549;-80
2024/01/05 09:15:08;;;;;;;0.90;0.90;;;3.00;99.90;;;;;;5043443;28;20049;-83
2024/01/05 09:17:34;;;;;;;0.47;0.47;;;3.00;99.90;;;;;;5031026;28;20060;-80
2024/01/05 09:19:59;;;;;;;0.70;0.70;;;3.40;99.90;;;;;;5031597;28;20042;-79
2024/01/05 09:22:26;;;;;;;0.70;0.70;;;;;;;;;;5017386;28;20445;-81
2024/01/05 09:24:52;;;;;;;0.60;0.60;;;2.80;99.90;;;;;;5031192;28;20398;-80
2024/01/05 09:27:17;;;;;;;;;;;3.20;99.90;;;;;;5029845;28;20033;-79
2024/01/05 09:29:43;;;;;;;0.70;0.70;;;2.80;99.90;;;;;;5012767;28;20003;-79
2024/01/05 09:32:09;;;;;;;0.50;0.50;;;2.80;99.90;;;;;;5031761;28;20036;-78
2024/01/05 09:34:34;;;;;;;0.60;0.60;;;2.80;99.90;;;;;;5031855;28;20045;-83
2024/01/05 09:37:00;;;;;;;0.50;0.50;;;2.80;99.90;;;;;;5010322;28;20043;-80
2024/01/05 09:39:26;;;;;;;0.70;0.70;;;2.80;99.90;;;;;;5032067;28;20402;-80
2024/01/05 09:41:53;;;;;;;0.70;0.70;;;2.90;99.90;;;;;;5024823;28;20440;-80
2024/01/05 09:44:19;;;;;;;0.50;0.50;;;2.90;99.90;;;;;;5032852;28;20032;-81
2024/01/05 09:46:45;;;;;;;0.50;0.50;;;3.60;99.90;;;;;;5035058;28;20486;-82
2024/01/05 09:49:13;;;;;;;0.60;0.60;;;2.90;99.90;;;;;;5013355;28;20049;-81
2024/01/05 09:51:39;;;;;;;0.70;0.70;;;2.90;99.90;;;;;;5034973;28;20102;-82
2024/01/05 09:54:06;;;;;;;0.60;0.60;;;3.00;99.90;;;;;;5012279;28;20046;-81
2024/01/05 09:56:32;;;;;;;0.50;0.50;;;3.00;99.90;;;;;;5028379;28;20042;-83
2024/01/05 09:58:59;;;;;;;0.60;0.60;;;3.00;99.90;;;;;;5032200;28;20179;-84
2024/01/05 10:01:30;;;;;;;0.70;0.70;;;3.40;99.90;;;;;;5030347;28;20044;-84
2024/01/05 10:03:57;;;;;;;0.50;0.50;;;3.00;99.90;;;;;;5034403;28;20037;-84
2024/01/05 10:06:25;;;;;;;0.63;0.63;;;3.00;99.90;;;;;;5017219;28;20547;-84
2024/01/05 10:09:00;;;;;;;0.50;0.50;;;3.10;99.90;;;;;;5023696;28;20049;-84
2024/01/05 10:11:31;;;;;;;0.52;0.52;;;3.10;99.90;;;;;;5014327;28;20048;-82
2024/01/05 10:14:01;;;;;;;0.50;0.50;;;3.10;99.90;;;;;;5038576;28;20127;-83
2024/01/05 10:16:36;;;;;;;0.80;0.80;;;3.50;99.90;;;;;;5014947;28;20041;-82
2024/01/05 10:19:12;;;;;;;0.70;0.70;;;3.20;99.90;;;;;;4998544;28;20136;-84
2024/01/05 10:21:39;;;;;;;0.60;0.60;;;3.90;99.90;;;;;;5022475;28;20039;-83
2024/01/05 10:24:21;;;;;;;0.68;0.68;;;3.60;99.90;;;;;;5011349;28;20072;-83
2024/01/05 10:27:00;;;;;;;0.63;0.63;;;3.90;99.90;;;;;;4998710;28;20043;-82
2024/01/05 10:29:26;;;;;;;0.60;0.60;;;3.40;99.90;;;;;;5034512;28;20045;-82
2024/01/05 10:31:52;;;;;;;0.82;0.82;;;3.40;99.90;;;;;;5019692;28;20045;-83
2024/01/05 10:34:18;;;;;;;0.50;0.50;;;3.50;99.90;;;;;;5040567;28;20049;-83
2024/01/05 10:36:43;;;;;;;0.52;0.52;;;3.50;99.90;;;;;;5033862;28;20055;-83
2024/01/05 10:39:09;;;;;;;0.50;0.50;;;4.00;99.90;;;;;;5035905;28;20382;-82
2024/01/05 10:41:35;;;;;;;0.60;0.60;;;3.90;99.90;;;;;;5039639;28;20044;-81
2024/01/05 10:44:03;;;;;;;0.50;0.50;;;4.00;99.90;;;;;;5040369;28;20037;-83
2024/01/05 10:46:31;;;;;;;0.60;0.60;;;3.70;99.90;;;;;;5012151;28;20037;-80
2024/01/05 10:48:57;;;;;;;0.52;0.52;;;3.70;99.90;;;;;;5010590;28;20148;-81
2024/01/05 10:51:23;;;;;;;0.70;0.70;;;3.70;99.90;;;;;;5009998;28;20136;-81
2024/01/05 10:53:49;;;;;;;0.50;0.50;;;3.90;99.90;;;;;;5012731;28;20033;-81
2024/01/05 10:56:20;;;;;;;0.50;0.50;;;3.70;99.90;;;;;;5015516;28;20041;-82
2024/01/05 10:58:49;;;;;;;0.60;0.60;;;4.00;99.90;;;;;;5035520;28;20063;-83
2024/01/05 11:01:18;;;;;;;0.55;0.55;;;3.70;99.90;;;;;;5028627;28;20406;-81
2024/01/05 11:03:47;;;;;;;0.52;0.52;;;4.80;99.90;;;;;;5017392;28;20029;-83
2024/01/05 11:06:14;;;;;;;0.60;0.60;;;3.70;99.90;;;;;;5031676;28;20033;-81
2024/01/05 11:08:52;;;;;;;0.50;0.50;;;3.80;99.90;;;;;;5031179;28;20077;-81
2024/01/05 11:11:31;;;;;;;0.50;0.50;;;3.80;99.90;;;;;;5027782;28;20069;-80
2024/01/05 11:14:40;;;;;;;0.60;0.60;;;3.90;99.90;;;;;;5033417;28;20079;-81
2024/01/05 11:17:21;;;;;;;0.60;0.60;;;4.00;99.90;;;;;;5039842;28;20053;-82
2024/01/05 11:20:08;;;;;;;0.50;0.50;;;4.10;99.90;;;;;;5033135;28;20037;-82
2024/01/05 11:22:37;;;;;;;0.60;0.60;;;4.10;99.90;;;;;;5052952;28;20138;-81
2024/01/05 11:25:04;;;;;;;0.50;0.50;;;4.20;99.90;;;;;;5048427;28;20034;-83
2024/01/05 11:27:32;;;;;;;0.70;0.70;;;4.20;99.90;;;;;;4999160;28;20041;-76
2024/01/05 11:29:59;;;;;;;0.57;0.57;;;4.30;99.90;;;;;;5040033;28;20136;-76
2024/01/05 11:32:46;;;;;;;;;;;4.30;99.90;;;;;;5042412;28;20438;-77
2024/01/05 11:35:19;;;;;;;0.60;0.60;;;4.30;99.90;;;;;;5017288;28;19979;-77
2024/01/05 11:37:48;;;;;;;0.60;0.60;;;4.40;99.90;;;;;;5020389;28;20052;-77
2024/01/05 11:40:34;;;;;;;0.50;0.50;;;4.30;99.90;;;;;;5004867;28;20750;-78
2024/01/05 11:43:30;;;;;;;0.60;0.60;;;4.20;99.90;;;;;;5011937;28;20045;-81
2024/01/05 11:45:55;;;;;;;0.60;0.60;;;4.10;99.90;;;;;;5021589;28;20515;-80
2024/01/05 11:48:33;;;;;;;0.60;0.60;;;4.10;99.90;;;;;;5024803;28;20033;-78
2024/01/05 11:51:09;;;;;;;0.57;0.57;;;4.10;99.90;;;;;;5008252;28;20046;-78
2024/01/05 11:53:35;;;;;;;0.77;0.77;;;4.00;99.90;;;;;;5016594;28;20105;-78
2024/01/05 11:56:11;;;;;;;0.47;0.47;;;4.00;99.90;;;;;;5012857;28;20077;-78
2024/01/05 11:58:41;;;;;;;0.60;0.60;;;4.00;99.90;;;;;;5027367;28;20057;-78
2024/01/05 12:01:09;;;;;;;0.60;0.60;;;4.00;99.90;;;;;;5045057;28;20600;-81
2024/01/05 12:03:38;;;;;;;0.52;0.52;;;4.00;99.90;;;;;;5031486;28;20139;-80
2024/01/05 12:06:04;;;;;;;0.50;0.50;;;4.00;99.90;;;;;;5034970;28;20053;-80
2024/01/05 12:08:30;;;;;;;0.85;0.85;;;4.00;99.90;;;;;;5013930;28;20058;-78
2024/01/05 12:10:57;;;;;;;0.60;0.60;;;4.00;99.90;;;;;;5020036;28;20064;-78
2024/01/05 12:13:26;;;;;;;0.60;0.60;;;4.00;99.90;;;;;;5025013;28;20057;-79
2024/01/05 12:16:03;;;;;;;0.60;0.60;;;4.10;99.90;;;;;;5001176;28;20038;-78
2024/01/05 12:18:30;;;;;;;0.55;0.55;;;4.10;99.90;;;;;;5021633;28;20041;-80
2024/01/05 12:21:03;;;;;;;0.55;0.55;;;4.10;99.90;;;;;;5033648;28;20094;-76
2024/01/05 12:23:30;;;;;;;0.50;0.50;;;4.10;99.90;;;;;;5043104;28;20041;-78
2024/01/05 12:26:06;;;;;;;0.50;0.50;;;4.10;99.90;;;;;;5019638;28;20316;-76
2024/01/05 12:28:33;;;;;;;0.60;0.60;;;4.10;99.90;;;;;;5037128;28;20120;-77
2024/01/05 12:31:00;;;;;;;0.60;0.60;;;4.10;99.90;;;;;;5038716;28;20056;-76
2024/01/05 12:33:27;;;;;;;0.50;0.50;;;4.10;99.90;;;;;;5037895;28;20431;-77
2024/01/05 12:35:54;;;;;;;0.68;0.68;;;4.10;99.90;;;;;;5024201;28;22082;-78
2024/01/05 12:38:30;;;;;;;0.60;0.60;;;4.20;99.90;;;;;;5041121;28;20095;-78
2024/01/05 12:41:09;;;;;;;0.57;0.57;;;4.20;99.90;;;;;;5037844;28;20625;-78
2024/01/05 12:43:36;;;;;;;0.50;0.50;;;4.30;99.90;;;;;;5032444;28;20186;-80
2024/01/05 12:46:04;;;;;;;0.73;0.60;;;4.30;99.90;;;;;;5025675;28;20427;-78
2024/01/05 12:48:31;;;;;;;0.95;0.90;;;4.40;99.90;;;;;;5033600;28;20066;-76
2024/01/05 12:51:14;;;;;;;0.55;0.55;;;4.40;99.90;;;;;;5040946;28;20043;-76
2024/01/05 12:53:40;;;;;;;0.80;0.80;;;4.40;99.90;;;;;;5017995;28;20047;-75
2024/01/05 12:56:10;;;;;;;0.57;0.57;;;4.50;99.90;;;;;;5042255;28;20029;-77
2024/01/05 12:58:40;;;;;;;0.60;0.60;;;4.40;99.90;;;;;;5039131;28;20071;-77
2024/01/05 13:01:14;;;;;;;0.80;0.80;;;4.40;99.90;;;;;;5039718;28;20116;-76
2024/01/05 13:03:40;;;;;;;0.60;0.60;;;4.40;99.90;;;;;;5053017;28;20049;-77